Stevensville, Virginia
Current Conditions -  °F | °C
As of 11:35 PM on Tuesday 21 Oct 2014 (Local Time) from KXSA Reporting Station
Broken Clouds Broken Clouds  
Wind Chill: 54°   Ceiling: 12000
Heat Index: 54°   Visibility: 10mi
Dew Point: 49°   Wind: 5mph
Humidity: 84%   Direction: 260°W
Pressure: 29.9"   Gusts: NA
Location:  37.73°N, 76.92°W
Report Text: KXSA 220335Z AUTO 26004KT 10SM SCT012 BKN120 12/10 A2990 RMK AO2 T01220095
Loading
Personal Weather Stations






























Interactive Weather Map
Tropical Storm Tracking
New forecast layout! Learn more

10-Day Weather Forecast

Advertisements
Track Severe Weather on mobile